createdAt,value
2019-05-09T00:00:27.360Z,983.04
2019-05-09T00:01:27.377Z,983.02
2019-05-09T00:02:27.395Z,983.02
2019-05-09T00:03:27.415Z,983.07
2019-05-09T00:04:27.435Z,983.07
2019-05-09T00:05:27.456Z,983.08
2019-05-09T00:06:27.475Z,983.06
2019-05-09T00:07:27.495Z,983.09
2019-05-09T00:08:27.513Z,983.05
2019-05-09T00:09:27.534Z,983.08
2019-05-09T00:10:38.391Z,983.07
2019-05-09T00:11:27.573Z,983.05
2019-05-09T00:12:27.599Z,983.04
2019-05-09T00:13:27.609Z,983.07
2019-05-09T00:14:27.636Z,983.04
2019-05-09T00:15:27.653Z,983.04
2019-05-09T00:16:27.670Z,983.07
2019-05-09T00:17:27.689Z,983.07
2019-05-09T00:18:27.707Z,983.07
2019-05-09T00:19:27.728Z,983.07
2019-05-09T00:20:27.744Z,983.07
2019-05-09T00:21:27.765Z,983.09
2019-05-09T00:22:27.785Z,983.08
2019-05-09T00:23:27.802Z,983.10
2019-05-09T00:24:27.822Z,983.08
2019-05-09T00:25:27.841Z,983.07
2019-05-09T00:26:27.866Z,983.05
2019-05-09T00:27:27.880Z,983.06
2019-05-09T00:28:27.901Z,983.11
2019-05-09T00:29:27.917Z,983.09
2019-05-09T00:30:27.936Z,983.10
2019-05-09T00:31:27.958Z,983.09
2019-05-09T00:32:27.979Z,983.11
2019-05-09T00:33:27.998Z,983.10
2019-05-09T00:34:28.016Z,983.12
2019-05-09T00:35:28.034Z,983.13
2019-05-09T00:36:28.053Z,983.13
2019-05-09T00:37:28.070Z,983.15
2019-05-09T00:38:28.089Z,983.16
2019-05-09T00:39:28.115Z,983.15
2019-05-09T00:40:28.130Z,983.14
2019-05-09T00:41:28.148Z,983.13
2019-05-09T00:42:28.166Z,983.19
2019-05-09T00:43:28.193Z,983.17
2019-05-09T00:44:28.210Z,983.21
2019-05-09T00:45:28.251Z,983.22
2019-05-09T00:46:28.246Z,983.23
2019-05-09T00:47:28.263Z,983.28
2019-05-09T00:48:28.288Z,983.25
2019-05-09T00:49:28.307Z,983.27
2019-05-09T00:50:29.629Z,983.26
2019-05-09T00:51:28.342Z,983.25
2019-05-09T00:52:28.364Z,983.27
2019-05-09T00:53:28.380Z,983.27
2019-05-09T00:54:28.399Z,983.27
2019-05-09T00:55:28.421Z,983.27
2019-05-09T00:56:28.439Z,983.26
2019-05-09T00:57:28.460Z,983.27
2019-05-09T00:58:28.476Z,983.27
2019-05-09T00:59:28.495Z,983.30
2019-05-09T01:00:28.514Z,983.28
2019-05-09T01:01:28.533Z,983.29
2019-05-09T01:02:28.551Z,983.26
2019-05-09T01:03:28.573Z,983.30
2019-05-09T01:04:28.611Z,983.26
2019-05-09T01:05:28.742Z,983.26
2019-05-09T01:06:28.674Z,983.30
2019-05-09T01:07:28.661Z,983.27
2019-05-09T01:08:28.774Z,983.26
2019-05-09T01:09:28.745Z,983.27
2019-05-09T01:10:28.811Z,983.24
2019-05-09T01:11:28.766Z,983.26
2019-05-09T01:12:28.775Z,983.24
2019-05-09T01:13:28.768Z,983.28
2019-05-09T01:14:28.810Z,983.25
2019-05-09T01:15:28.818Z,983.27
2019-05-09T01:16:28.836Z,983.23
2019-05-09T01:17:28.846Z,983.23
2019-05-09T01:18:28.868Z,983.22
2019-05-09T01:19:28.882Z,983.20
2019-05-09T01:20:28.914Z,983.20
2019-05-09T01:21:28.927Z,983.21
2019-05-09T01:22:28.945Z,983.19
2019-05-09T01:23:28.976Z,983.19
2019-05-09T01:24:28.981Z,983.19
2019-05-09T01:25:29.011Z,983.15
2019-05-09T01:26:29.017Z,983.15
2019-05-09T01:27:29.039Z,983.16
2019-05-09T01:28:29.059Z,983.16
2019-05-09T01:29:29.073Z,983.18
2019-05-09T01:30:29.096Z,983.20
2019-05-09T01:31:29.111Z,983.19
2019-05-09T01:32:29.134Z,983.25
2019-05-09T01:33:29.155Z,983.27
2019-05-09T01:34:29.176Z,983.27
2019-05-09T01:35:29.194Z,983.28
2019-05-09T01:36:29.209Z,983.25
2019-05-09T01:37:29.230Z,983.22
2019-05-09T01:38:29.246Z,983.23
2019-05-09T01:39:29.269Z,983.26
2019-05-09T01:40:29.284Z,983.26
2019-05-09T01:41:31.954Z,983.29
2019-05-09T01:42:29.323Z,983.26
2019-05-09T01:43:29.341Z,983.26
2019-05-09T01:44:29.361Z,983.29
2019-05-09T01:45:29.382Z,983.26
2019-05-09T01:46:29.401Z,983.29
2019-05-09T01:47:29.421Z,983.24
2019-05-09T01:48:29.439Z,983.28
2019-05-09T01:49:29.459Z,983.27
2019-05-09T01:50:29.477Z,983.28
2019-05-09T01:51:29.502Z,983.30
2019-05-09T01:52:29.514Z,983.32
2019-05-09T01:53:29.535Z,983.34
2019-05-09T01:54:29.557Z,983.32
2019-05-09T01:55:29.574Z,983.32
2019-05-09T01:56:29.591Z,983.32
2019-05-09T01:57:29.611Z,983.31
2019-05-09T01:58:29.634Z,983.31
2019-05-09T01:59:29.650Z,983.33
2019-05-09T02:00:29.674Z,983.35
2019-05-09T02:01:29.688Z,983.35
2019-05-09T02:02:29.710Z,983.34
2019-05-09T02:03:29.729Z,983.37
2019-05-09T02:04:29.745Z,983.36
2019-05-09T02:05:29.769Z,983.36
2019-05-09T02:06:29.782Z,983.39
2019-05-09T02:07:29.806Z,983.41
2019-05-09T02:08:29.826Z,983.42
2019-05-09T02:09:29.841Z,983.39
2019-05-09T02:10:29.861Z,983.40
2019-05-09T02:11:40.157Z,983.40
2019-05-09T02:12:29.907Z,983.41
2019-05-09T02:13:29.918Z,983.38
2019-05-09T02:14:29.933Z,983.38
2019-05-09T02:15:29.954Z,983.39
2019-05-09T02:16:29.974Z,983.38
2019-05-09T02:17:29.994Z,983.37
2019-05-09T02:18:30.023Z,983.39
2019-05-09T02:19:30.034Z,983.38
2019-05-09T02:20:30.057Z,983.42
2019-05-09T02:21:30.070Z,983.39
2019-05-09T02:22:30.087Z,983.37
2019-05-09T02:23:30.108Z,983.39
2019-05-09T02:24:30.127Z,983.36
2019-05-09T02:25:30.146Z,983.37
2019-05-09T02:26:30.166Z,983.40
2019-05-09T02:27:30.182Z,983.39
2019-05-09T02:28:30.205Z,983.37
2019-05-09T02:29:30.221Z,983.39
2019-05-09T02:30:30.249Z,983.42
2019-05-09T02:31:30.268Z,983.41
2019-05-09T02:32:30.280Z,983.39
2019-05-09T02:33:30.302Z,983.43
2019-05-09T02:34:30.322Z,983.44
2019-05-09T02:35:36.544Z,983.45
2019-05-09T02:36:30.357Z,983.47
2019-05-09T02:37:30.381Z,983.50
2019-05-09T02:38:30.399Z,983.52
2019-05-09T02:39:30.420Z,983.56
2019-05-09T02:40:30.432Z,983.57
2019-05-09T02:41:30.454Z,983.57
2019-05-09T02:42:30.471Z,983.58
2019-05-09T02:43:30.490Z,983.57
2019-05-09T02:44:30.512Z,983.57
2019-05-09T02:45:30.529Z,983.59
2019-05-09T02:46:30.548Z,983.60
2019-05-09T02:47:30.567Z,983.62
2019-05-09T02:48:30.586Z,983.59
2019-05-09T02:49:30.612Z,983.59
2019-05-09T02:50:30.622Z,983.63
2019-05-09T02:51:30.647Z,983.61
2019-05-09T02:52:30.660Z,983.62
2019-05-09T02:53:30.682Z,983.62
2019-05-09T02:54:30.699Z,983.63
2019-05-09T02:55:30.716Z,983.62
2019-05-09T02:56:30.738Z,983.67
2019-05-09T02:57:30.769Z,983.66
2019-05-09T02:58:30.792Z,983.70
2019-05-09T02:59:30.794Z,983.69
2019-05-09T03:00:30.813Z,983.68
2019-05-09T03:01:30.828Z,983.69
2019-05-09T03:02:30.868Z,983.66
2019-05-09T03:03:30.868Z,983.65
2019-05-09T03:04:30.893Z,983.69
2019-05-09T03:05:30.913Z,983.71
2019-05-09T03:06:30.929Z,983.71
2019-05-09T03:07:30.947Z,983.70
2019-05-09T03:08:30.966Z,983.74
2019-05-09T03:09:30.981Z,983.74
2019-05-09T03:10:31.000Z,983.70
2019-05-09T03:11:31.030Z,983.73
2019-05-09T03:12:35.544Z,983.75
2019-05-09T03:13:31.065Z,983.72
2019-05-09T03:14:31.080Z,983.74
2019-05-09T03:15:31.096Z,983.74
2019-05-09T03:16:31.114Z,983.75
2019-05-09T03:17:31.134Z,983.74
2019-05-09T03:18:31.150Z,983.73
2019-05-09T03:19:31.178Z,983.73
2019-05-09T03:20:31.189Z,983.76
2019-05-09T03:21:31.207Z,983.73
2019-05-09T03:22:31.226Z,983.73
2019-05-09T03:23:31.246Z,983.76
2019-05-09T03:24:31.266Z,983.80
2019-05-09T03:25:31.281Z,983.84
2019-05-09T03:26:31.304Z,983.84
2019-05-09T03:27:31.320Z,983.86
2019-05-09T03:28:31.337Z,983.90
2019-05-09T03:29:31.365Z,983.90
2019-05-09T03:30:31.376Z,983.93
2019-05-09T03:31:31.398Z,983.98
2019-05-09T03:32:31.427Z,983.97
2019-05-09T03:33:35.508Z,983.95
2019-05-09T03:34:31.469Z,983.94
2019-05-09T03:35:31.471Z,983.93
2019-05-09T03:36:31.486Z,983.93
2019-05-09T03:37:31.505Z,983.91
2019-05-09T03:38:31.525Z,983.92
2019-05-09T03:39:31.544Z,983.89
2019-05-09T03:40:31.564Z,983.88
2019-05-09T03:41:31.589Z,983.88
2019-05-09T03:42:43.102Z,983.91
2019-05-09T03:43:31.620Z,983.88
2019-05-09T03:44:31.638Z,983.89
2019-05-09T03:45:31.659Z,983.93
2019-05-09T03:46:31.675Z,983.94
2019-05-09T03:47:31.694Z,983.93
2019-05-09T03:48:31.716Z,983.95
2019-05-09T03:49:31.735Z,983.93
2019-05-09T03:50:31.762Z,983.91
2019-05-09T03:51:31.774Z,983.90
2019-05-09T03:52:31.789Z,983.90
2019-05-09T03:53:31.811Z,983.91
2019-05-09T03:54:31.825Z,983.97
2019-05-09T03:55:31.845Z,983.91
2019-05-09T03:56:31.869Z,983.93
2019-05-09T03:57:31.892Z,983.93
2019-05-09T03:58:31.904Z,983.97
2019-05-09T03:59:31.924Z,983.98
2019-05-09T04:00:31.938Z,984.02
2019-05-09T04:01:31.957Z,984.03
2019-05-09T04:02:31.977Z,984.02
2019-05-09T04:03:31.994Z,984.03
2019-05-09T04:04:32.014Z,984.05
2019-05-09T04:05:32.031Z,984.00
2019-05-09T04:06:32.056Z,984.09
2019-05-09T04:07:32.071Z,984.07
2019-05-09T04:08:32.091Z,984.11
2019-05-09T04:09:32.115Z,984.11
2019-05-09T04:10:32.124Z,984.12
2019-05-09T04:11:32.143Z,984.09
2019-05-09T04:12:32.162Z,984.11
2019-05-09T04:13:32.186Z,984.07
2019-05-09T04:14:32.197Z,984.10
2019-05-09T04:15:32.221Z,984.10
2019-05-09T04:16:32.250Z,984.07
2019-05-09T04:17:32.253Z,984.07
2019-05-09T04:18:32.272Z,984.11
2019-05-09T04:19:32.292Z,984.09
2019-05-09T04:20:32.312Z,984.08
2019-05-09T04:21:32.330Z,984.08
2019-05-09T04:22:32.351Z,984.09
2019-05-09T04:23:32.367Z,984.11
2019-05-09T04:24:32.387Z,984.10
2019-05-09T04:25:32.409Z,984.12
2019-05-09T04:26:32.420Z,984.12
2019-05-09T04:27:32.442Z,984.10
2019-05-09T04:28:32.460Z,984.11
2019-05-09T04:29:32.484Z,984.10
2019-05-09T04:30:32.503Z,984.11
2019-05-09T04:31:32.517Z,984.08
2019-05-09T04:32:32.539Z,984.10
2019-05-09T04:33:32.555Z,984.08
2019-05-09T04:34:32.574Z,984.09
2019-05-09T04:35:32.596Z,984.07
2019-05-09T04:36:32.614Z,984.07
2019-05-09T04:37:32.633Z,984.08
2019-05-09T04:38:32.654Z,984.06
2019-05-09T04:39:32.668Z,984.09
2019-05-09T04:40:37.714Z,984.10
2019-05-09T04:41:32.705Z,984.10
2019-05-09T04:42:35.099Z,984.09
2019-05-09T04:43:36.797Z,984.10
2019-05-09T04:44:32.763Z,984.10
2019-05-09T04:45:33.153Z,984.13
2019-05-09T04:46:32.845Z,984.17
2019-05-09T04:47:33.801Z,984.15
2019-05-09T04:48:32.840Z,984.15
2019-05-09T04:49:39.644Z,984.14
2019-05-09T04:50:32.876Z,984.13
2019-05-09T04:51:32.894Z,984.13
2019-05-09T04:52:32.910Z,984.15
2019-05-09T04:53:33.170Z,984.12
2019-05-09T04:54:32.957Z,984.14
2019-05-09T04:55:32.979Z,984.12
2019-05-09T04:56:33.002Z,984.17
2019-05-09T04:57:33.014Z,984.18
2019-05-09T04:58:33.025Z,984.16
2019-05-09T04:59:33.043Z,984.15
2019-05-09T05:00:33.062Z,984.21
2019-05-09T05:01:33.134Z,984.22
2019-05-09T05:02:33.109Z,984.20
2019-05-09T05:03:33.132Z,984.22
2019-05-09T05:04:33.140Z,984.20
2019-05-09T05:05:33.175Z,984.17
2019-05-09T05:06:33.184Z,984.19
2019-05-09T05:07:33.191Z,984.19
2019-05-09T05:08:33.209Z,984.19
2019-05-09T05:09:33.231Z,984.17
2019-05-09T05:10:33.251Z,984.20
2019-05-09T05:11:33.276Z,984.17
2019-05-09T05:12:33.329Z,984.19
2019-05-09T05:13:33.310Z,984.16
2019-05-09T05:14:33.337Z,984.16
2019-05-09T05:15:33.354Z,984.17
2019-05-09T05:16:33.361Z,984.17
2019-05-09T05:17:33.381Z,984.12
2019-05-09T05:18:33.401Z,984.15
2019-05-09T05:19:35.549Z,984.18
2019-05-09T05:20:33.443Z,984.18
2019-05-09T05:21:33.465Z,984.25
2019-05-09T05:22:33.484Z,984.25
2019-05-09T05:23:33.611Z,984.29
2019-05-09T05:24:33.524Z,984.33
2019-05-09T05:25:33.548Z,984.31
2019-05-09T05:26:33.548Z,984.34
2019-05-09T05:27:33.568Z,984.34
2019-05-09T05:28:33.589Z,984.37
2019-05-09T05:29:33.603Z,984.34
2019-05-09T05:30:33.635Z,984.38
2019-05-09T05:31:33.655Z,984.43
2019-05-09T05:32:33.777Z,984.49
2019-05-09T05:33:33.690Z,984.47
2019-05-09T05:34:33.699Z,984.47
2019-05-09T05:35:33.720Z,984.49
2019-05-09T05:36:33.750Z,984.49
2019-05-09T05:37:33.754Z,984.50
2019-05-09T05:38:33.772Z,984.45
2019-05-09T05:39:33.794Z,984.51
2019-05-09T05:40:34.056Z,984.47
2019-05-09T05:41:33.829Z,984.49
2019-05-09T05:42:33.852Z,984.51
2019-05-09T05:43:43.388Z,984.53
2019-05-09T05:44:33.888Z,984.54
2019-05-09T05:45:33.907Z,984.64
2019-05-09T05:46:33.929Z,984.68
2019-05-09T05:47:33.946Z,984.74
2019-05-09T05:48:33.974Z,984.88
2019-05-09T05:49:33.985Z,984.92
2019-05-09T05:50:34.006Z,985.06
2019-05-09T05:51:34.023Z,985.15
2019-05-09T05:52:34.042Z,985.34
2019-05-09T05:53:34.062Z,985.17
2019-05-09T05:54:34.086Z,985.81
2019-05-09T05:55:34.109Z,985.93
2019-05-09T05:56:34.128Z,985.32
2019-05-09T05:57:34.142Z,985.25
2019-05-09T05:58:34.163Z,986.29
2019-05-09T05:59:37.299Z,986.47
2019-05-09T06:00:34.207Z,986.36
2019-05-09T06:01:34.236Z,987.02
2019-05-09T06:02:34.248Z,987.74
2019-05-09T06:03:34.268Z,987.85
2019-05-09T06:04:34.285Z,987.62
2019-05-09T06:05:34.307Z,987.62
2019-05-09T06:06:34.327Z,988.05
2019-05-09T06:07:34.349Z,988.39
2019-05-09T06:08:34.378Z,988.40
2019-05-09T06:09:34.399Z,987.97
2019-05-09T06:10:34.423Z,988.45
2019-05-09T06:11:34.441Z,988.35
2019-05-09T06:12:34.599Z,985.56
2019-05-09T06:13:34.672Z,987.60
2019-05-09T06:14:34.583Z,987.89
2019-05-09T06:15:34.564Z,988.38
2019-05-09T06:16:34.628Z,988.92
2019-05-09T06:17:34.610Z,989.15
2019-05-09T06:18:34.625Z,989.21
2019-05-09T06:19:34.717Z,989.13
2019-05-09T06:20:34.679Z,988.89
2019-05-09T06:21:34.717Z,988.84
2019-05-09T06:22:34.725Z,988.88
2019-05-09T06:23:34.752Z,989.11
2019-05-09T06:24:34.769Z,989.10
2019-05-09T06:25:34.791Z,989.11
2019-05-09T06:26:34.818Z,989.27
2019-05-09T06:27:34.856Z,989.48
2019-05-09T06:28:34.869Z,989.54
2019-05-09T06:29:34.890Z,989.88
2019-05-09T06:30:40.849Z,989.98
2019-05-09T06:31:34.930Z,989.83
2019-05-09T06:32:34.955Z,988.47
2019-05-09T06:33:34.984Z,989.51
2019-05-09T06:34:34.998Z,989.57
2019-05-09T06:35:37.751Z,988.57
2019-05-09T06:36:38.605Z,988.86
2019-05-09T06:37:35.071Z,986.82
2019-05-09T06:38:37.587Z,986.16
2019-05-09T06:39:35.113Z,985.57
2019-05-09T06:40:35.149Z,987.94
2019-05-09T06:41:37.795Z,986.65
2019-05-09T06:42:37.852Z,985.67
2019-05-09T06:43:35.211Z,985.79
2019-05-09T06:44:37.325Z,985.40
2019-05-09T06:45:39.105Z,986.60
2019-05-09T06:46:37.703Z,985.43
2019-05-09T06:47:35.299Z,985.20
2019-05-09T06:48:37.626Z,985.04
2019-05-09T06:49:37.531Z,984.98
2019-05-09T06:50:35.355Z,985.17
2019-05-09T06:51:35.403Z,984.96
2019-05-09T06:52:37.502Z,984.85
2019-05-09T06:53:35.424Z,984.90
2019-05-09T06:54:35.442Z,985.23
2019-05-09T06:55:35.464Z,985.73
2019-05-09T06:56:35.483Z,985.73
2019-05-09T06:57:38.989Z,989.12
2019-05-09T06:58:35.526Z,989.08
2019-05-09T06:59:35.546Z,989.03
2019-05-09T07:00:37.758Z,989.20
2019-05-09T07:01:37.636Z,989.24
2019-05-09T07:02:35.610Z,989.25
2019-05-09T07:03:37.506Z,988.98
2019-05-09T07:04:37.939Z,988.94
2019-05-09T07:05:35.667Z,988.29
2019-05-09T07:06:38.023Z,989.19
2019-05-09T07:07:37.392Z,989.41
2019-05-09T07:08:37.938Z,989.26
2019-05-09T07:09:35.759Z,989.48
2019-05-09T07:10:37.693Z,989.50
2019-05-09T07:11:37.976Z,989.32
2019-05-09T07:12:37.828Z,989.68
2019-05-09T07:13:38.071Z,990.11
2019-05-09T07:14:39.084Z,989.19
2019-05-09T07:15:37.630Z,990.14
2019-05-09T07:16:37.619Z,990.39
2019-05-09T07:17:38.549Z,990.32
2019-05-09T07:18:38.151Z,990.59
2019-05-09T07:19:38.329Z,989.26
2019-05-09T07:20:37.885Z,988.93
2019-05-09T07:21:37.577Z,990.65
2019-05-09T07:22:38.997Z,988.43
2019-05-09T07:23:37.301Z,985.36
2019-05-09T07:24:37.781Z,985.52
2019-05-09T07:25:37.789Z,985.38
2019-05-09T07:26:37.373Z,985.32
2019-05-09T07:27:38.828Z,984.99
2019-05-09T07:28:37.669Z,985.05
2019-05-09T07:29:37.605Z,985.22
2019-05-09T07:30:37.577Z,985.20
2019-05-09T07:31:37.875Z,988.95
2019-05-09T07:32:38.207Z,987.35
2019-05-09T07:33:38.338Z,985.93
2019-05-09T07:34:38.239Z,985.39
2019-05-09T07:35:38.241Z,985.31
2019-05-09T07:36:38.368Z,985.34
2019-05-09T07:37:37.964Z,985.36
2019-05-09T07:38:38.447Z,985.23
2019-05-09T07:39:37.988Z,985.18
2019-05-09T07:40:38.463Z,985.06
2019-05-09T07:41:38.436Z,985.22
2019-05-09T07:42:38.882Z,985.23
2019-05-09T07:43:38.443Z,985.30
2019-05-09T07:44:46.250Z,985.41
2019-05-09T07:45:38.401Z,985.43
2019-05-09T07:46:38.436Z,985.38
2019-05-09T07:47:38.549Z,985.41
2019-05-09T07:48:38.117Z,985.30
2019-05-09T07:49:37.750Z,985.20
2019-05-09T07:50:38.861Z,985.39
2019-05-09T07:51:37.327Z,985.34
2019-05-09T07:52:38.810Z,985.38
2019-05-09T07:53:37.974Z,985.19
2019-05-09T07:54:37.750Z,985.02
2019-05-09T07:55:37.856Z,985.05
2019-05-09T07:56:37.836Z,985.04
2019-05-09T07:57:44.902Z,984.97
2019-05-09T07:58:37.737Z,984.90
2019-05-09T07:59:38.789Z,984.94
2019-05-09T08:00:38.544Z,984.97
2019-05-09T08:01:38.430Z,984.92
2019-05-09T08:02:38.699Z,984.94
2019-05-09T08:03:38.452Z,984.92
2019-05-09T08:04:38.576Z,984.87
2019-05-09T08:05:38.588Z,984.76
2019-05-09T08:06:37.964Z,984.86
2019-05-09T08:07:38.091Z,984.91
2019-05-09T08:08:38.451Z,984.88
2019-05-09T08:09:38.709Z,984.86
2019-05-09T08:10:38.559Z,984.89
2019-05-09T08:11:37.715Z,984.90
2019-05-09T08:12:38.885Z,984.97
2019-05-09T08:13:39.234Z,985.11
2019-05-09T08:14:37.869Z,985.08
2019-05-09T08:15:38.395Z,984.93
2019-05-09T08:16:37.954Z,984.97
2019-05-09T08:17:38.189Z,984.92
2019-05-09T08:18:37.603Z,984.99
2019-05-09T08:19:38.042Z,984.91
2019-05-09T08:20:40.438Z,984.86
2019-05-09T08:21:38.391Z,984.87
2019-05-09T08:22:41.249Z,984.85
2019-05-09T08:23:37.976Z,984.95
2019-05-09T08:24:38.009Z,984.90
2019-05-09T08:25:38.244Z,984.77
2019-05-09T08:26:39.589Z,984.80
2019-05-09T08:27:37.835Z,984.83
2019-05-09T08:28:38.957Z,984.75
2019-05-09T08:29:38.671Z,984.79
2019-05-09T08:30:40.238Z,984.75
2019-05-09T08:31:40.070Z,984.77
2019-05-09T08:32:37.942Z,984.86
2019-05-09T08:33:38.258Z,984.95
2019-05-09T08:34:37.925Z,984.92
2019-05-09T08:35:38.281Z,984.90
2019-05-09T08:36:38.467Z,984.84
2019-05-09T08:37:39.077Z,984.93
2019-05-09T08:38:38.931Z,984.86
2019-05-09T08:39:38.395Z,984.96
2019-05-09T08:40:38.396Z,984.96
2019-05-09T08:41:38.431Z,984.85
2019-05-09T08:42:37.981Z,984.95
2019-05-09T08:43:37.769Z,984.95
2019-05-09T08:44:39.022Z,984.91
2019-05-09T08:45:38.409Z,984.89
2019-05-09T08:46:37.890Z,985.04
2019-05-09T08:47:38.324Z,984.92
2019-05-09T08:48:38.016Z,984.90
2019-05-09T08:49:37.852Z,984.93
2019-05-09T08:50:38.899Z,984.88
2019-05-09T08:51:50.769Z,984.84
2019-05-09T08:52:37.915Z,984.85
2019-05-09T08:53:38.171Z,984.86
2019-05-09T08:54:38.157Z,984.84
2019-05-09T08:55:38.422Z,984.85
2019-05-09T08:56:38.797Z,984.83
2019-05-09T08:57:38.007Z,984.84
2019-05-09T08:58:38.372Z,984.94
2019-05-09T08:59:38.368Z,984.90
2019-05-09T09:00:39.091Z,984.87
2019-05-09T09:02:04.483Z,984.80
2019-05-09T09:02:38.107Z,984.88
2019-05-09T09:03:38.128Z,984.93
2019-05-09T09:04:38.561Z,984.99
2019-05-09T09:05:38.434Z,985.03
2019-05-09T09:06:38.197Z,984.98
2019-05-09T09:07:38.208Z,984.96
2019-05-09T09:08:38.227Z,984.91
2019-05-09T09:09:38.247Z,984.98
2019-05-09T09:10:38.750Z,985.13
2019-05-09T09:11:38.662Z,985.07
2019-05-09T09:12:38.591Z,984.95
2019-05-09T09:13:38.321Z,984.98
2019-05-09T09:14:38.634Z,984.97
2019-05-09T09:16:02.409Z,984.89
2019-05-09T09:16:41.433Z,984.99
2019-05-09T09:17:38.726Z,984.97
2019-05-09T09:18:38.872Z,984.97
2019-05-09T09:19:38.791Z,984.97
2019-05-09T09:20:38.461Z,984.95
2019-05-09T09:21:38.972Z,984.92
2019-05-09T09:22:38.499Z,984.90
2019-05-09T09:23:44.145Z,984.88
2019-05-09T09:24:38.538Z,984.90
2019-05-09T09:25:39.062Z,984.86
2019-05-09T09:26:38.583Z,984.86
2019-05-09T09:27:38.603Z,984.92
2019-05-09T09:28:38.620Z,984.97
2019-05-09T09:29:38.637Z,984.95
2019-05-09T09:30:39.073Z,984.96
2019-05-09T09:31:38.681Z,985.04
2019-05-09T09:32:38.965Z,984.91
2019-05-09T09:33:38.718Z,984.89
2019-05-09T09:34:38.745Z,984.99
2019-05-09T09:35:38.756Z,985.00
2019-05-09T09:36:39.201Z,985.01
2019-05-09T09:37:48.546Z,985.03
2019-05-09T09:38:38.812Z,985.08
2019-05-09T09:39:44.521Z,985.09
2019-05-09T09:40:38.854Z,985.03
2019-05-09T09:41:39.004Z,985.03
2019-05-09T09:42:39.629Z,985.01
2019-05-09T09:43:38.921Z,985.01
2019-05-09T09:44:39.620Z,985.04
2019-05-09T09:45:38.949Z,985.05
2019-05-09T09:46:38.973Z,985.14
2019-05-09T09:47:40.153Z,985.16
2019-05-09T09:48:39.117Z,985.12
2019-05-09T09:49:39.028Z,985.15
2019-05-09T09:50:39.049Z,985.14
2019-05-09T09:51:39.072Z,985.17
2019-05-09T09:52:39.091Z,985.16
2019-05-09T09:53:39.111Z,985.21
2019-05-09T09:54:39.133Z,985.17
2019-05-09T09:55:39.147Z,985.10
2019-05-09T09:56:39.184Z,985.15
2019-05-09T09:57:39.188Z,985.17
2019-05-09T09:58:39.214Z,985.10
2019-05-09T09:59:41.052Z,985.14
2019-05-09T10:00:39.248Z,985.13
2019-05-09T10:01:39.269Z,985.06
2019-05-09T10:02:39.290Z,985.16
2019-05-09T10:03:39.316Z,985.17
2019-05-09T10:04:39.327Z,985.15
2019-05-09T10:05:39.348Z,985.08
2019-05-09T10:06:39.368Z,985.18
2019-05-09T10:07:39.392Z,985.17
2019-05-09T10:08:40.043Z,985.15
2019-05-09T10:09:39.429Z,985.20
2019-05-09T10:10:39.447Z,985.21
2019-05-09T10:11:39.469Z,985.20
2019-05-09T10:12:44.339Z,985.08
2019-05-09T10:13:39.508Z,985.06
2019-05-09T10:14:39.532Z,985.07
2019-05-09T10:15:39.557Z,985.08
2019-05-09T10:16:39.578Z,985.00
2019-05-09T10:17:39.588Z,984.94
2019-05-09T10:18:39.613Z,985.01
2019-05-09T10:19:39.630Z,984.99
2019-05-09T10:20:39.655Z,984.86
2019-05-09T10:21:39.669Z,984.94
2019-05-09T10:22:46.296Z,984.98
2019-05-09T10:23:39.713Z,984.94
2019-05-09T10:24:39.733Z,984.94
2019-05-09T10:25:39.752Z,984.94
2019-05-09T10:26:39.770Z,984.96
2019-05-09T10:27:39.795Z,985.01
2019-05-09T10:28:39.810Z,984.95
2019-05-09T10:29:39.831Z,985.02
2019-05-09T10:30:39.850Z,985.03
2019-05-09T10:31:39.875Z,984.93
2019-05-09T10:32:39.892Z,984.94
2019-05-09T10:33:39.913Z,984.96
2019-05-09T10:34:39.933Z,984.91
2019-05-09T10:35:39.950Z,984.83
2019-05-09T10:36:39.973Z,984.88
2019-05-09T10:37:39.994Z,984.89
2019-05-09T10:38:40.014Z,984.99
2019-05-09T10:39:40.034Z,984.94
2019-05-09T10:40:40.531Z,985.01
2019-05-09T10:41:40.070Z,985.03
2019-05-09T10:42:40.092Z,985.09
2019-05-09T10:43:40.117Z,985.00
2019-05-09T10:44:40.130Z,984.97
2019-05-09T10:45:41.074Z,985.00
2019-05-09T10:46:52.568Z,984.98
2019-05-09T10:47:40.191Z,984.93
2019-05-09T10:48:40.214Z,984.94
2019-05-09T10:49:40.232Z,984.99
2019-05-09T10:50:44.272Z,985.03
2019-05-09T10:51:40.271Z,985.06
2019-05-09T10:52:40.290Z,985.15
2019-05-09T10:53:40.314Z,984.99
2019-05-09T10:54:40.451Z,985.02
2019-05-09T10:55:40.542Z,984.97
2019-05-09T10:56:40.523Z,985.05
2019-05-09T10:57:42.445Z,984.97
2019-05-09T10:58:40.421Z,984.91
2019-05-09T10:59:40.532Z,985.00
2019-05-09T11:00:40.461Z,984.94
2019-05-09T11:01:40.485Z,984.80
2019-05-09T11:02:40.491Z,984.84
2019-05-09T11:03:40.547Z,984.84
2019-05-09T11:04:44.280Z,984.86
2019-05-09T11:05:40.554Z,984.88
2019-05-09T11:06:40.581Z,984.89
2019-05-09T11:07:40.601Z,984.86
2019-05-09T11:08:40.624Z,984.88
2019-05-09T11:09:40.638Z,984.82
2019-05-09T11:10:40.649Z,984.86
2019-05-09T11:11:40.860Z,984.90
2019-05-09T11:12:40.694Z,984.93
2019-05-09T11:13:40.720Z,984.80
2019-05-09T11:14:40.735Z,984.81
2019-05-09T11:15:40.837Z,984.80
2019-05-09T11:16:46.149Z,984.73
2019-05-09T11:17:40.791Z,984.83
2019-05-09T11:18:40.811Z,984.83
2019-05-09T11:19:40.834Z,984.75
2019-05-09T11:20:40.857Z,984.77
2019-05-09T11:21:40.875Z,984.74
2019-05-09T11:22:40.903Z,984.80
2019-05-09T11:23:40.913Z,984.80
2019-05-09T11:24:46.226Z,984.77
2019-05-09T11:25:40.952Z,984.74
2019-05-09T11:26:40.986Z,984.68
2019-05-09T11:27:40.995Z,984.74
2019-05-09T11:28:41.014Z,984.77
2019-05-09T11:29:41.037Z,984.72
2019-05-09T11:30:41.059Z,984.69
2019-05-09T11:31:41.079Z,984.63
2019-05-09T11:32:41.109Z,984.61
2019-05-09T11:33:41.118Z,984.56
2019-05-09T11:34:41.140Z,984.61
2019-05-09T11:35:41.184Z,984.56
2019-05-09T11:36:41.181Z,984.61
2019-05-09T11:37:41.200Z,984.61
2019-05-09T11:38:43.965Z,984.63
2019-05-09T11:39:42.268Z,984.61
2019-05-09T11:40:41.259Z,984.59
2019-05-09T11:41:41.281Z,984.61
2019-05-09T11:42:41.298Z,984.59
2019-05-09T11:43:41.324Z,984.57
2019-05-09T11:44:41.346Z,984.60
2019-05-09T11:45:41.363Z,984.59
2019-05-09T11:46:41.384Z,984.61
2019-05-09T11:47:46.228Z,984.60
2019-05-09T11:48:41.422Z,984.63
2019-05-09T11:49:41.449Z,984.67
2019-05-09T11:50:41.463Z,984.68
2019-05-09T11:51:41.484Z,984.68
2019-05-09T11:52:41.519Z,984.70
2019-05-09T11:53:41.549Z,984.79
2019-05-09T11:54:41.540Z,984.76
2019-05-09T11:55:43.365Z,984.76
2019-05-09T11:56:41.580Z,984.77
2019-05-09T11:57:41.625Z,984.79
2019-05-09T11:58:41.626Z,984.73
2019-05-09T11:59:41.640Z,984.75
2019-05-09T12:00:41.664Z,984.70
2019-05-09T12:01:41.680Z,984.77
2019-05-09T12:02:41.700Z,984.72
2019-05-09T12:03:41.721Z,984.80
2019-05-09T12:04:41.738Z,984.78
2019-05-09T12:05:41.760Z,984.77
2019-05-09T12:06:41.779Z,984.73
2019-05-09T12:07:41.799Z,984.71
2019-05-09T12:08:41.823Z,984.71
2019-05-09T12:09:41.839Z,984.73
2019-05-09T12:10:41.862Z,984.68
2019-05-09T12:11:44.551Z,984.69
2019-05-09T12:12:41.909Z,984.63
2019-05-09T12:13:41.917Z,984.58
2019-05-09T12:14:41.940Z,984.55
2019-05-09T12:15:41.961Z,984.57
2019-05-09T12:16:41.985Z,984.60
2019-05-09T12:17:56.521Z,984.62
2019-05-09T12:18:42.024Z,984.66
2019-05-09T12:19:42.047Z,984.63
2019-05-09T12:20:42.059Z,984.63
2019-05-09T12:21:47.633Z,984.60
2019-05-09T12:22:42.105Z,984.51
2019-05-09T12:23:42.244Z,984.49
2019-05-09T12:24:42.148Z,984.57
2019-05-09T12:25:42.166Z,984.47
2019-05-09T12:26:42.180Z,984.41
2019-05-09T12:27:42.202Z,984.44
2019-05-09T12:28:42.217Z,984.47